sensor_id;sensor_type;location;lat;lon;timestamp;temperature;humidity
48978;DHT22;34793;48.940;2.618;2022-11-15T00:02:07;17.70;88.90
48978;DHT22;34793;48.940;2.618;2022-11-15T00:04:32;17.70;88.20
48978;DHT22;34793;48.940;2.618;2022-11-15T00:06:58;17.60;88.10
48978;DHT22;34793;48.940;2.618;2022-11-15T00:09:24;17.60;88.10
48978;DHT22;34793;48.940;2.618;2022-11-15T00:11:50;17.70;87.70
48978;DHT22;34793;48.940;2.618;2022-11-15T00:14:16;17.60;86.70
48978;DHT22;34793;48.940;2.618;2022-11-15T00:16:41;17.60;86.80
48978;DHT22;34793;48.940;2.618;2022-11-15T00:19:07;17.70;86.70
48978;DHT22;34793;48.940;2.618;2022-11-15T00:21:33;17.70;86.00
48978;DHT22;34793;48.940;2.618;2022-11-15T00:23:58;17.70;86.20
48978;DHT22;34793;48.940;2.618;2022-11-15T00:26:24;17.80;85.20
48978;DHT22;34793;48.940;2.618;2022-11-15T00:28:51;17.80;84.80
48978;DHT22;34793;48.940;2.618;2022-11-15T00:31:16;17.80;84.70
48978;DHT22;34793;48.940;2.618;2022-11-15T00:33:43;17.70;85.50
48978;DHT22;34793;48.940;2.618;2022-11-15T00:36:08;17.80;85.60
48978;DHT22;34793;48.940;2.618;2022-11-15T00:38:35;17.50;85.90
48978;DHT22;34793;48.940;2.618;2022-11-15T00:41:01;17.60;85.90
48978;DHT22;34793;48.940;2.618;2022-11-15T00:43:27;17.40;86.40
48978;DHT22;34793;48.940;2.618;2022-11-15T00:45:52;17.40;86.60
48978;DHT22;34793;48.940;2.618;2022-11-15T00:48:18;17.20;86.80
48978;DHT22;34793;48.940;2.618;2022-11-15T00:50:44;17.30;87.00
48978;DHT22;34793;48.940;2.618;2022-11-15T00:53:09;17.40;87.20
48978;DHT22;34793;48.940;2.618;2022-11-15T00:55:35;17.50;87.20
48978;DHT22;34793;48.940;2.618;2022-11-15T00:58:00;17.60;86.60
48978;DHT22;34793;48.940;2.618;2022-11-15T01:00:26;17.60;86.20
48978;DHT22;34793;48.940;2.618;2022-11-15T01:02:52;17.50;86.00
48978;DHT22;34793;48.940;2.618;2022-11-15T01:05:18;17.60;85.70
48978;DHT22;34793;48.940;2.618;2022-11-15T01:07:43;17.40;85.50
48978;DHT22;34793;48.940;2.618;2022-11-15T01:10:09;17.30;85.90
48978;DHT22;34793;48.940;2.618;2022-11-15T01:12:34;17.20;85.40
48978;DHT22;34793;48.940;2.618;2022-11-15T01:15:00;17.20;85.60
48978;DHT22;34793;48.940;2.618;2022-11-15T01:17:26;17.20;84.80
48978;DHT22;34793;48.940;2.618;2022-11-15T01:19:52;17.30;84.50
48978;DHT22;34793;48.940;2.618;2022-11-15T01:22:17;17.10;85.50
48978;DHT22;34793;48.940;2.618;2022-11-15T01:24:43;17.00;85.30
48978;DHT22;34793;48.940;2.618;2022-11-15T01:27:08;17.00;85.30
48978;DHT22;34793;48.940;2.618;2022-11-15T01:29:34;17.00;85.20
48978;DHT22;34793;48.940;2.618;2022-11-15T01:32:00;16.90;85.80
48978;DHT22;34793;48.940;2.618;2022-11-15T01:34:25;16.70;86.00
48978;DHT22;34793;48.940;2.618;2022-11-15T01:36:51;16.80;85.40
48978;DHT22;34793;48.940;2.618;2022-11-15T01:39:16;16.60;85.90
48978;DHT22;34793;48.940;2.618;2022-11-15T01:41:42;16.50;86.40
48978;DHT22;34793;48.940;2.618;2022-11-15T01:46:52;16.40;85.90
48978;DHT22;34793;48.940;2.618;2022-11-15T01:49:19;16.40;86.30
48978;DHT22;34793;48.940;2.618;2022-11-15T01:51:45;16.40;85.90
48978;DHT22;34793;48.940;2.618;2022-11-15T01:54:13;16.40;85.80
48978;DHT22;34793;48.940;2.618;2022-11-15T01:56:44;16.40;85.90
48978;DHT22;34793;48.940;2.618;2022-11-15T01:59:11;16.50;85.50
48978;DHT22;34793;48.940;2.618;2022-11-15T02:01:37;16.50;85.20
48978;DHT22;34793;48.940;2.618;2022-11-15T02:04:11;16.40;85.30
48978;DHT22;34793;48.940;2.618;2022-11-15T02:06:38;16.30;85.30
48978;DHT22;34793;48.940;2.618;2022-11-15T02:09:04;16.20;85.40
48978;DHT22;34793;48.940;2.618;2022-11-15T02:11:29;16.10;86.30
48978;DHT22;34793;48.940;2.618;2022-11-15T02:13:55;15.90;87.10
48978;DHT22;34793;48.940;2.618;2022-11-15T02:27:24;15.80;86.60
48978;DHT22;34793;48.940;2.618;2022-11-15T02:32:45;15.80;86.30
48978;DHT22;34793;48.940;2.618;2022-11-15T02:37:57;15.90;85.30
48978;DHT22;34793;48.940;2.618;2022-11-15T02:43:04;16.00;84.20
48978;DHT22;34793;48.940;2.618;2022-11-15T02:46:14;16.00;85.10
48978;DHT22;34793;48.940;2.618;2022-11-15T02:48:41;16.00;84.70
48978;DHT22;34793;48.940;2.618;2022-11-15T02:51:08;16.00;85.40
48978;DHT22;34793;48.940;2.618;2022-11-15T02:53:34;16.00;84.70
48978;DHT22;34793;48.940;2.618;2022-11-15T02:56:00;16.00;84.10
48978;DHT22;34793;48.940;2.618;2022-11-15T03:06:26;16.00;84.70
48978;DHT22;34793;48.940;2.618;2022-11-15T03:09:03;16.00;84.40
48978;DHT22;34793;48.940;2.618;2022-11-15T03:11:32;16.00;84.10
48978;DHT22;34793;48.940;2.618;2022-11-15T03:16:47;15.90;83.70
48978;DHT22;34793;48.940;2.618;2022-11-15T03:19:17;15.90;83.70
48978;DHT22;34793;48.940;2.618;2022-11-15T03:21:45;15.90;83.90
48978;DHT22;34793;48.940;2.618;2022-11-15T03:24:12;15.90;83.60
48978;DHT22;34793;48.940;2.618;2022-11-15T03:26:38;15.80;83.50
48978;DHT22;34793;48.940;2.618;2022-11-15T03:29:09;15.90;83.30
48978;DHT22;34793;48.940;2.618;2022-11-15T03:31:38;15.80;84.00
48978;DHT22;34793;48.940;2.618;2022-11-15T03:34:13;15.70;84.20
48978;DHT22;34793;48.940;2.618;2022-11-15T03:36:40;15.60;83.90
48978;DHT22;34793;48.940;2.618;2022-11-15T03:39:07;15.70;84.50
48978;DHT22;34793;48.940;2.618;2022-11-15T03:44:11;15.60;84.20
48978;DHT22;34793;48.940;2.618;2022-11-15T03:49:27;15.60;84.90
48978;DHT22;34793;48.940;2.618;2022-11-15T03:51:56;15.50;85.00
48978;DHT22;34793;48.940;2.618;2022-11-15T03:54:22;15.60;85.10
48978;DHT22;34793;48.940;2.618;2022-11-15T03:56:48;15.70;84.70
48978;DHT22;34793;48.940;2.618;2022-11-15T03:59:13;15.70;84.30
48978;DHT22;34793;48.940;2.618;2022-11-15T04:01:39;15.80;83.90
48978;DHT22;34793;48.940;2.618;2022-11-15T04:04:04;15.80;83.80
48978;DHT22;34793;48.940;2.618;2022-11-15T04:06:30;15.80;83.30
48978;DHT22;34793;48.940;2.618;2022-11-15T04:08:55;15.80;83.50
48978;DHT22;34793;48.940;2.618;2022-11-15T04:11:21;15.80;83.40
48978;DHT22;34793;48.940;2.618;2022-11-15T04:13:47;15.90;83.50
48978;DHT22;34793;48.940;2.618;2022-11-15T04:16:12;15.90;83.20
48978;DHT22;34793;48.940;2.618;2022-11-15T04:18:38;15.80;83.00
48978;DHT22;34793;48.940;2.618;2022-11-15T04:21:03;15.70;83.00
48978;DHT22;34793;48.940;2.618;2022-11-15T04:23:47;15.70;82.50
48978;DHT22;34793;48.940;2.618;2022-11-15T04:26:32;15.70;83.30
48978;DHT22;34793;48.940;2.618;2022-11-15T04:28:58;15.70;82.70
48978;DHT22;34793;48.940;2.618;2022-11-15T04:31:42;15.60;83.20
48978;DHT22;34793;48.940;2.618;2022-11-15T04:34:07;15.60;83.70
48978;DHT22;34793;48.940;2.618;2022-11-15T04:36:33;15.60;83.10
48978;DHT22;34793;48.940;2.618;2022-11-15T04:39:17;15.30;83.60
48978;DHT22;34793;48.940;2.618;2022-11-15T04:41:43;15.20;84.30
48978;DHT22;34793;48.940;2.618;2022-11-15T04:44:08;15.30;84.10
48978;DHT22;34793;48.940;2.618;2022-11-15T04:46:35;15.30;84.40
48978;DHT22;34793;48.940;2.618;2022-11-15T04:49:00;15.30;84.40
48978;DHT22;34793;48.940;2.618;2022-11-15T04:51:26;15.30;84.10
48978;DHT22;34793;48.940;2.618;2022-11-15T04:53:51;15.20;84.50
48978;DHT22;34793;48.940;2.618;2022-11-15T04:56:17;15.30;83.60
48978;DHT22;34793;48.940;2.618;2022-11-15T04:58:42;15.30;83.90
48978;DHT22;34793;48.940;2.618;2022-11-15T05:01:09;15.30;83.90
48978;DHT22;34793;48.940;2.618;2022-11-15T05:03:34;15.10;84.60
48978;DHT22;34793;48.940;2.618;2022-11-15T05:06:18;15.10;85.00
48978;DHT22;34793;48.940;2.618;2022-11-15T05:08:44;15.10;85.10
48978;DHT22;34793;48.940;2.618;2022-11-15T05:11:09;15.10;84.70
48978;DHT22;34793;48.940;2.618;2022-11-15T05:13:35;15.10;84.90
48978;DHT22;34793;48.940;2.618;2022-11-15T05:16:00;15.10;85.60
48978;DHT22;34793;48.940;2.618;2022-11-15T05:18:26;15.00;85.20
48978;DHT22;34793;48.940;2.618;2022-11-15T05:20:51;15.00;84.80
48978;DHT22;34793;48.940;2.618;2022-11-15T05:23:17;15.00;85.30
48978;DHT22;34793;48.940;2.618;2022-11-15T05:25:42;15.00;85.00
48978;DHT22;34793;48.940;2.618;2022-11-15T05:28:08;14.90;85.50
48978;DHT22;34793;48.940;2.618;2022-11-15T05:30:34;14.90;85.30
48978;DHT22;34793;48.940;2.618;2022-11-15T05:32:59;14.90;85.60
48978;DHT22;34793;48.940;2.618;2022-11-15T05:35:27;14.90;85.50
48978;DHT22;34793;48.940;2.618;2022-11-15T05:37:54;14.90;85.60
48978;DHT22;34793;48.940;2.618;2022-11-15T05:40:20;14.70;86.30
48978;DHT22;34793;48.940;2.618;2022-11-15T05:42:46;14.70;86.50
48978;DHT22;34793;48.940;2.618;2022-11-15T05:45:12;14.70;86.30
48978;DHT22;34793;48.940;2.618;2022-11-15T05:47:37;14.70;86.40
48978;DHT22;34793;48.940;2.618;2022-11-15T05:50:04;14.70;86.30
48978;DHT22;34793;48.940;2.618;2022-11-15T05:52:30;14.70;86.70
48978;DHT22;34793;48.940;2.618;2022-11-15T05:54:56;14.70;87.00
48978;DHT22;34793;48.940;2.618;2022-11-15T05:57:22;14.60;87.10
48978;DHT22;34793;48.940;2.618;2022-11-15T05:59:49;14.80;86.40
48978;DHT22;34793;48.940;2.618;2022-11-15T06:02:14;14.80;87.10
48978;DHT22;34793;48.940;2.618;2022-11-15T06:04:40;14.90;86.60
48978;DHT22;34793;48.940;2.618;2022-11-15T06:07:06;14.90;86.60
48978;DHT22;34793;48.940;2.618;2022-11-15T06:09:32;15.00;86.40
48978;DHT22;34793;48.940;2.618;2022-11-15T06:11:57;15.10;85.80
48978;DHT22;34793;48.940;2.618;2022-11-15T06:14:23;14.90;86.20
48978;DHT22;34793;48.940;2.618;2022-11-15T06:16:48;14.90;86.60
48978;DHT22;34793;48.940;2.618;2022-11-15T06:19:15;15.00;86.40
48978;DHT22;34793;48.940;2.618;2022-11-15T06:21:40;15.00;86.60
48978;DHT22;34793;48.940;2.618;2022-11-15T06:24:06;15.00;86.50
48978;DHT22;34793;48.940;2.618;2022-11-15T06:26:32;15.10;86.60
48978;DHT22;34793;48.940;2.618;2022-11-15T06:28:57;15.10;86.80
48978;DHT22;34793;48.940;2.618;2022-11-15T06:31:23;15.10;86.70
48978;DHT22;34793;48.940;2.618;2022-11-15T06:33:49;15.20;86.40
48978;DHT22;34793;48.940;2.618;2022-11-15T06:36:14;15.20;86.40
48978;DHT22;34793;48.940;2.618;2022-11-15T06:38:42;15.30;86.30
48978;DHT22;34793;48.940;2.618;2022-11-15T06:41:08;15.20;86.70
48978;DHT22;34793;48.940;2.618;2022-11-15T06:43:34;15.30;86.90
48978;DHT22;34793;48.940;2.618;2022-11-15T06:46:01;15.30;86.90
48978;DHT22;34793;48.940;2.618;2022-11-15T06:48:27;15.10;87.30
48978;DHT22;34793;48.940;2.618;2022-11-15T06:50:53;15.20;87.60
48978;DHT22;34793;48.940;2.618;2022-11-15T06:53:19;15.20;87.60
48978;DHT22;34793;48.940;2.618;2022-11-15T06:55:44;15.20;87.50
48978;DHT22;34793;48.940;2.618;2022-11-15T06:58:10;15.10;87.80
48978;DHT22;34793;48.940;2.618;2022-11-15T07:00:36;15.20;87.80
48978;DHT22;34793;48.940;2.618;2022-11-15T07:03:01;15.20;88.50
48978;DHT22;34793;48.940;2.618;2022-11-15T07:05:27;15.20;87.70
48978;DHT22;34793;48.940;2.618;2022-11-15T07:07:53;15.40;88.00
48978;DHT22;34793;48.940;2.618;2022-11-15T07:10:19;15.30;88.00
48978;DHT22;34793;48.940;2.618;2022-11-15T07:12:48;15.10;88.90
48978;DHT22;34793;48.940;2.618;2022-11-15T07:15:14;14.90;89.30
48978;DHT22;34793;48.940;2.618;2022-11-15T07:17:40;15.00;89.30
48978;DHT22;34793;48.940;2.618;2022-11-15T07:20:06;15.10;89.10
48978;DHT22;34793;48.940;2.618;2022-11-15T07:22:31;15.20;88.60
48978;DHT22;34793;48.940;2.618;2022-11-15T07:24:57;15.20;88.30
48978;DHT22;34793;48.940;2.618;2022-11-15T07:27:22;15.20;88.90
48978;DHT22;34793;48.940;2.618;2022-11-15T07:29:48;15.20;88.80
48978;DHT22;34793;48.940;2.618;2022-11-15T07:32:13;15.20;88.90
48978;DHT22;34793;48.940;2.618;2022-11-15T07:34:39;15.20;88.90
48978;DHT22;34793;48.940;2.618;2022-11-15T07:37:05;15.30;89.30
48978;DHT22;34793;48.940;2.618;2022-11-15T07:39:30;15.20;89.50
48978;DHT22;34793;48.940;2.618;2022-11-15T07:41:56;15.00;90.10
48978;DHT22;34793;48.940;2.618;2022-11-15T07:44:41;15.10;90.40
48978;DHT22;34793;48.940;2.618;2022-11-15T07:47:07;15.10;90.10
48978;DHT22;34793;48.940;2.618;2022-11-15T07:49:32;15.00;90.10
48978;DHT22;34793;48.940;2.618;2022-11-15T07:51:58;15.00;90.30
48978;DHT22;34793;48.940;2.618;2022-11-15T07:54:23;15.10;90.50
48978;DHT22;34793;48.940;2.618;2022-11-15T07:56:49;15.30;90.00
48978;DHT22;34793;48.940;2.618;2022-11-15T07:59:15;15.40;90.00
48978;DHT22;34793;48.940;2.618;2022-11-15T08:01:40;15.30;89.90
48978;DHT22;34793;48.940;2.618;2022-11-15T08:04:06;15.20;90.00
48978;DHT22;34793;48.940;2.618;2022-11-15T08:06:31;15.40;90.00
48978;DHT22;34793;48.940;2.618;2022-11-15T08:08:57;15.20;90.30
48978;DHT22;34793;48.940;2.618;2022-11-15T08:11:23;15.50;90.10
48978;DHT22;34793;48.940;2.618;2022-11-15T08:13:48;15.30;90.20
48978;DHT22;34793;48.940;2.618;2022-11-15T08:16:14;15.20;90.70
48978;DHT22;34793;48.940;2.618;2022-11-15T08:18:40;15.20;90.70
48978;DHT22;34793;48.940;2.618;2022-11-15T08:21:08;15.00;91.10
48978;DHT22;34793;48.940;2.618;2022-11-15T08:23:34;15.00;91.20
48978;DHT22;34793;48.940;2.618;2022-11-15T08:26:02;14.80;91.70
48978;DHT22;34793;48.940;2.618;2022-11-15T08:28:28;15.00;91.40
48978;DHT22;34793;48.940;2.618;2022-11-15T08:30:54;15.10;91.40
48978;DHT22;34793;48.940;2.618;2022-11-15T08:33:20;15.20;91.40
48978;DHT22;34793;48.940;2.618;2022-11-15T08:35:45;15.30;91.10
48978;DHT22;34793;48.940;2.618;2022-11-15T08:38:11;15.50;91.00
48978;DHT22;34793;48.940;2.618;2022-11-15T08:40:36;15.70;90.60
48978;DHT22;34793;48.940;2.618;2022-11-15T08:43:02;15.70;90.60
48978;DHT22;34793;48.940;2.618;2022-11-15T08:45:29;15.90;90.50
48978;DHT22;34793;48.940;2.618;2022-11-15T08:47:55;15.80;90.50
48978;DHT22;34793;48.940;2.618;2022-11-15T08:50:20;16.10;90.20
48978;DHT22;34793;48.940;2.618;2022-11-15T08:52:46;16.20;90.00
48978;DHT22;34793;48.940;2.618;2022-11-15T08:55:13;16.20;90.00
48978;DHT22;34793;48.940;2.618;2022-11-15T08:57:39;16.30;90.10
48978;DHT22;34793;48.940;2.618;2022-11-15T09:00:05;16.40;89.60
48978;DHT22;34793;48.940;2.618;2022-11-15T09:02:30;16.30;89.60
48978;DHT22;34793;48.940;2.618;2022-11-15T09:04:56;16.10;90.20
48978;DHT22;34793;48.940;2.618;2022-11-15T09:07:22;16.20;90.30
48978;DHT22;34793;48.940;2.618;2022-11-15T09:12:47;16.40;90.20
48978;DHT22;34793;48.940;2.618;2022-11-15T09:15:15;16.40;90.50
48978;DHT22;34793;48.940;2.618;2022-11-15T09:17:41;16.70;89.80
48978;DHT22;34793;48.940;2.618;2022-11-15T09:20:07;16.70;89.50
48978;DHT22;34793;48.940;2.618;2022-11-15T09:22:33;16.50;89.30
48978;DHT22;34793;48.940;2.618;2022-11-15T09:24:59;16.70;89.10
48978;DHT22;34793;48.940;2.618;2022-11-15T09:27:28;16.80;90.20
48978;DHT22;34793;48.940;2.618;2022-11-15T09:29:54;16.90;89.10
48978;DHT22;34793;48.940;2.618;2022-11-15T09:32:20;16.90;89.40
48978;DHT22;34793;48.940;2.618;2022-11-15T09:34:45;17.20;88.40
48978;DHT22;34793;48.940;2.618;2022-11-15T09:37:11;17.40;87.30
48978;DHT22;34793;48.940;2.618;2022-11-15T09:39:37;17.50;87.00
48978;DHT22;34793;48.940;2.618;2022-11-15T09:44:41;17.80;86.90
48978;DHT22;34793;48.940;2.618;2022-11-15T09:49:34;17.50;87.00
48978;DHT22;34793;48.940;2.618;2022-11-15T09:51:59;17.40;86.60
48978;DHT22;34793;48.940;2.618;2022-11-15T09:54:35;17.50;86.80
48978;DHT22;34793;48.940;2.618;2022-11-15T09:57:09;17.60;86.50
48978;DHT22;34793;48.940;2.618;2022-11-15T10:05:00;17.60;86.70
48978;DHT22;34793;48.940;2.618;2022-11-15T10:09:53;17.80;86.60
48978;DHT22;34793;48.940;2.618;2022-11-15T10:12:21;17.60;87.10
48978;DHT22;34793;48.940;2.618;2022-11-15T10:14:47;17.80;85.40
48978;DHT22;34793;48.940;2.618;2022-11-15T10:17:20;17.90;85.50
48978;DHT22;34793;48.940;2.618;2022-11-15T10:22:27;17.80;86.30
48978;DHT22;34793;48.940;2.618;2022-11-15T10:24:59;17.70;86.70
48978;DHT22;34793;48.940;2.618;2022-11-15T10:27:25;17.70;86.70
48978;DHT22;34793;48.940;2.618;2022-11-15T10:29:51;17.70;86.60
48978;DHT22;34793;48.940;2.618;2022-11-15T10:32:17;17.80;86.90
48978;DHT22;34793;48.940;2.618;2022-11-15T10:34:43;17.90;87.40
48978;DHT22;34793;48.940;2.618;2022-11-15T10:37:09;18.00;87.20
48978;DHT22;34793;48.940;2.618;2022-11-15T10:39:35;18.10;88.00
48978;DHT22;34793;48.940;2.618;2022-11-15T10:44:56;18.10;87.60
48978;DHT22;34793;48.940;2.618;2022-11-15T10:52:44;18.00;88.80
48978;DHT22;34793;48.940;2.618;2022-11-15T10:57:36;18.40;87.80
48978;DHT22;34793;48.940;2.618;2022-11-15T11:00:44;18.40;87.10
48978;DHT22;34793;48.940;2.618;2022-11-15T11:05:27;18.50;87.10
48978;DHT22;34793;48.940;2.618;2022-11-15T11:07:58;18.50;87.30
48978;DHT22;34793;48.940;2.618;2022-11-15T11:10:24;18.40;87.80
48978;DHT22;34793;48.940;2.618;2022-11-15T11:12:50;18.30;88.20
48978;DHT22;34793;48.940;2.618;2022-11-15T11:15:15;18.20;88.20
48978;DHT22;34793;48.940;2.618;2022-11-15T11:18:01;18.20;88.70
48978;DHT22;34793;48.940;2.618;2022-11-15T11:20:38;18.10;88.50
48978;DHT22;34793;48.940;2.618;2022-11-15T11:33:44;18.20;89.30
48978;DHT22;34793;48.940;2.618;2022-11-15T11:36:25;18.10;89.30
48978;DHT22;34793;48.940;2.618;2022-11-15T11:49:12;18.10;90.00
48978;DHT22;34793;48.940;2.618;2022-11-15T11:51:42;18.20;89.70
48978;DHT22;34793;48.940;2.618;2022-11-15T11:54:32;18.10;90.00
48978;DHT22;34793;48.940;2.618;2022-11-15T11:57:02;17.80;90.60
48978;DHT22;34793;48.940;2.618;2022-11-15T11:59:41;17.60;90.80
48978;DHT22;34793;48.940;2.618;2022-11-15T12:02:14;17.60;90.90
48978;DHT22;34793;48.940;2.618;2022-11-15T12:04:42;17.70;90.90
48978;DHT22;34793;48.940;2.618;2022-11-15T12:09:43;17.90;90.90
48978;DHT22;34793;48.940;2.618;2022-11-15T12:17:01;17.90;90.90
48978;DHT22;34793;48.940;2.618;2022-11-15T12:19:26;17.90;90.80
48978;DHT22;34793;48.940;2.618;2022-11-15T12:21:56;17.90;90.70
48978;DHT22;34793;48.940;2.618;2022-11-15T12:24:29;17.90;90.80
48978;DHT22;34793;48.940;2.618;2022-11-15T12:31:51;17.90;90.80
48978;DHT22;34793;48.940;2.618;2022-11-15T12:36:46;17.80;90.90
48978;DHT22;34793;48.940;2.618;2022-11-15T12:39:16;17.80;91.10
48978;DHT22;34793;48.940;2.618;2022-11-15T12:41:42;17.90;91.00
48978;DHT22;34793;48.940;2.618;2022-11-15T12:44:12;18.00;91.00
48978;DHT22;34793;48.940;2.618;2022-11-15T13:02:26;18.20;91.00
48978;DHT22;34793;48.940;2.618;2022-11-15T13:04:53;18.10;90.90
48978;DHT22;34793;48.940;2.618;2022-11-15T13:10:00;18.30;90.70
48978;DHT22;34793;48.940;2.618;2022-11-15T13:14:58;18.60;90.60
48978;DHT22;34793;48.940;2.618;2022-11-15T13:17:37;18.70;90.60
48978;DHT22;34793;48.940;2.618;2022-11-15T13:28:02;18.80;90.40
48978;DHT22;34793;48.940;2.618;2022-11-15T13:30:29;18.70;90.30
48978;DHT22;34793;48.940;2.618;2022-11-15T13:32:55;18.50;90.50
48978;DHT22;34793;48.940;2.618;2022-11-15T13:35:22;18.70;90.50
48978;DHT22;34793;48.940;2.618;2022-11-15T13:37:48;18.80;90.50
48978;DHT22;34793;48.940;2.618;2022-11-15T13:40:25;18.80;90.30
48978;DHT22;34793;48.940;2.618;2022-11-15T13:42:53;18.80;90.30
48978;DHT22;34793;48.940;2.618;2022-11-15T13:45:19;18.50;90.70
48978;DHT22;34793;48.940;2.618;2022-11-15T13:47:44;18.70;90.60
48978;DHT22;34793;48.940;2.618;2022-11-15T13:50:16;18.60;90.60
48978;DHT22;34793;48.940;2.618;2022-11-15T13:52:42;18.50;90.60
48978;DHT22;34793;48.940;2.618;2022-11-15T13:57:45;18.40;91.00
48978;DHT22;34793;48.940;2.618;2022-11-15T14:05:35;18.80;90.80
48978;DHT22;34793;48.940;2.618;2022-11-15T14:08:13;18.80;90.70
48978;DHT22;34793;48.940;2.618;2022-11-15T14:10:47;18.70;90.60
48978;DHT22;34793;48.940;2.618;2022-11-15T14:13:30;18.60;90.70
48978;DHT22;34793;48.940;2.618;2022-11-15T14:18:44;18.60;90.70
48978;DHT22;34793;48.940;2.618;2022-11-15T14:21:10;18.80;90.60
48978;DHT22;34793;48.940;2.618;2022-11-15T14:23:36;18.70;90.70
48978;DHT22;34793;48.940;2.618;2022-11-15T14:26:01;18.70;90.70
48978;DHT22;34793;48.940;2.618;2022-11-15T14:30:54;18.60;90.90
48978;DHT22;34793;48.940;2.618;2022-11-15T14:33:25;18.50;90.80
48978;DHT22;34793;48.940;2.618;2022-11-15T14:35:53;18.60;91.20
48978;DHT22;34793;48.940;2.618;2022-11-15T14:38:21;18.70;90.90
48978;DHT22;34793;48.940;2.618;2022-11-15T14:40:46;18.70;90.80
48978;DHT22;34793;48.940;2.618;2022-11-15T14:43:12;18.70;90.90
48978;DHT22;34793;48.940;2.618;2022-11-15T14:45:38;18.70;91.00
48978;DHT22;34793;48.940;2.618;2022-11-15T14:48:04;18.80;90.80
48978;DHT22;34793;48.940;2.618;2022-11-15T14:50:30;18.70;90.90
48978;DHT22;34793;48.940;2.618;2022-11-15T14:52:57;18.50;91.10
48978;DHT22;34793;48.940;2.618;2022-11-15T14:55:23;18.60;91.20
48978;DHT22;34793;48.940;2.618;2022-11-15T14:57:49;18.60;91.20
48978;DHT22;34793;48.940;2.618;2022-11-15T15:00:15;18.60;91.20
48978;DHT22;34793;48.940;2.618;2022-11-15T15:02:42;18.50;91.30
48978;DHT22;34793;48.940;2.618;2022-11-15T15:05:15;18.60;91.10
48978;DHT22;34793;48.940;2.618;2022-11-15T15:07:41;18.50;91.40
48978;DHT22;34793;48.940;2.618;2022-11-15T15:10:07;18.70;91.20
48978;DHT22;34793;48.940;2.618;2022-11-15T15:12:33;18.60;91.20
48978;DHT22;34793;48.940;2.618;2022-11-15T15:14:59;18.50;91.40
48978;DHT22;34793;48.940;2.618;2022-11-15T15:17:24;18.50;91.50
48978;DHT22;34793;48.940;2.618;2022-11-15T15:19:50;18.70;91.00
48978;DHT22;34793;48.940;2.618;2022-11-15T15:22:17;18.60;91.20
48978;DHT22;34793;48.940;2.618;2022-11-15T15:24:43;18.50;91.30
48978;DHT22;34793;48.940;2.618;2022-11-15T15:27:10;18.60;91.30
48978;DHT22;34793;48.940;2.618;2022-11-15T15:29:35;18.70;91.30
48978;DHT22;34793;48.940;2.618;2022-11-15T15:32:01;19.00;90.90
48978;DHT22;34793;48.940;2.618;2022-11-15T15:34:27;18.90;90.90
48978;DHT22;34793;48.940;2.618;2022-11-15T15:39:33;19.20;90.70
48978;DHT22;34793;48.940;2.618;2022-11-15T15:41:59;19.20;90.60
48978;DHT22;34793;48.940;2.618;2022-11-15T15:44:24;19.20;90.80
48978;DHT22;34793;48.940;2.618;2022-11-15T15:46:50;19.10;90.60
48978;DHT22;34793;48.940;2.618;2022-11-15T15:49:16;18.90;91.00
48978;DHT22;34793;48.940;2.618;2022-11-15T15:51:42;18.70;91.30
48978;DHT22;34793;48.940;2.618;2022-11-15T15:54:07;18.70;91.40
48978;DHT22;34793;48.940;2.618;2022-11-15T15:56:33;18.80;91.30
48978;DHT22;34793;48.940;2.618;2022-11-15T15:58:58;18.70;91.30
48978;DHT22;34793;48.940;2.618;2022-11-15T16:01:24;18.70;91.30
48978;DHT22;34793;48.940;2.618;2022-11-15T16:03:50;18.80;91.30
48978;DHT22;34793;48.940;2.618;2022-11-15T16:09:16;19.00;91.20
48978;DHT22;34793;48.940;2.618;2022-11-15T16:11:44;19.00;91.10
48978;DHT22;34793;48.940;2.618;2022-11-15T16:14:10;19.10;91.00
48978;DHT22;34793;48.940;2.618;2022-11-15T16:16:35;19.20;90.80
48978;DHT22;34793;48.940;2.618;2022-11-15T16:19:01;19.10;90.90
48978;DHT22;34793;48.940;2.618;2022-11-15T16:21:27;19.10;91.00
48978;DHT22;34793;48.940;2.618;2022-11-15T16:23:53;19.20;91.00
48978;DHT22;34793;48.940;2.618;2022-11-15T16:26:23;19.20;90.90
48978;DHT22;34793;48.940;2.618;2022-11-15T16:28:50;19.00;91.20
48978;DHT22;34793;48.940;2.618;2022-11-15T16:31:16;19.00;91.30
48978;DHT22;34793;48.940;2.618;2022-11-15T16:33:43;19.00;91.70
48978;DHT22;34793;48.940;2.618;2022-11-15T16:36:20;19.10;91.30
48978;DHT22;34793;48.940;2.618;2022-11-15T16:38:46;19.00;91.30
48978;DHT22;34793;48.940;2.618;2022-11-15T16:41:11;18.90;91.50
48978;DHT22;34793;48.940;2.618;2022-11-15T16:43:37;19.00;91.40
48978;DHT22;34793;48.940;2.618;2022-11-15T16:46:06;19.20;91.20
48978;DHT22;34793;48.940;2.618;2022-11-15T16:48:32;19.20;91.00
48978;DHT22;34793;48.940;2.618;2022-11-15T16:54:01;19.30;91.00
48978;DHT22;34793;48.940;2.618;2022-11-15T16:56:27;19.20;91.20
48978;DHT22;34793;48.940;2.618;2022-11-15T16:58:54;19.10;91.30
48978;DHT22;34793;48.940;2.618;2022-11-15T17:01:23;19.10;91.30
48978;DHT22;34793;48.940;2.618;2022-11-15T17:03:49;19.10;91.50
48978;DHT22;34793;48.940;2.618;2022-11-15T17:06:15;19.00;91.60
48978;DHT22;34793;48.940;2.618;2022-11-15T17:08:42;19.00;91.40
48978;DHT22;34793;48.940;2.618;2022-11-15T17:11:08;19.10;91.30
48978;DHT22;34793;48.940;2.618;2022-11-15T17:13:34;19.00;91.50
48978;DHT22;34793;48.940;2.618;2022-11-15T17:16:06;19.10;91.70
48978;DHT22;34793;48.940;2.618;2022-11-15T17:18:34;19.20;91.60
48978;DHT22;34793;48.940;2.618;2022-11-15T17:21:10;19.20;91.30
48978;DHT22;34793;48.940;2.618;2022-11-15T17:23:37;19.10;91.60
48978;DHT22;34793;48.940;2.618;2022-11-15T17:26:03;19.20;91.30
48978;DHT22;34793;48.940;2.618;2022-11-15T17:28:30;19.30;91.20
48978;DHT22;34793;48.940;2.618;2022-11-15T17:30:56;19.30;91.20
48978;DHT22;34793;48.940;2.618;2022-11-15T17:33:21;19.30;91.20
48978;DHT22;34793;48.940;2.618;2022-11-15T17:35:53;19.20;91.40
48978;DHT22;34793;48.940;2.618;2022-11-15T17:38:19;19.20;91.40
48978;DHT22;34793;48.940;2.618;2022-11-15T17:41:18;19.10;91.30
48978;DHT22;34793;48.940;2.618;2022-11-15T17:43:36;19.20;91.60
48978;DHT22;34793;48.940;2.618;2022-11-15T17:46:06;19.10;91.50
48978;DHT22;34793;48.940;2.618;2022-11-15T17:48:32;19.00;91.60
48978;DHT22;34793;48.940;2.618;2022-11-15T17:51:02;19.00;91.80
48978;DHT22;34793;48.940;2.618;2022-11-15T17:53:33;18.90;92.40
48978;DHT22;34793;48.940;2.618;2022-11-15T17:56:09;18.80;92.20
48978;DHT22;34793;48.940;2.618;2022-11-15T17:58:35;18.80;92.00
48978;DHT22;34793;48.940;2.618;2022-11-15T18:03:31;18.80;92.10
48978;DHT22;34793;48.940;2.618;2022-11-15T18:05:57;18.80;92.20
48978;DHT22;34793;48.940;2.618;2022-11-15T18:08:23;18.80;92.10
48978;DHT22;34793;48.940;2.618;2022-11-15T18:10:48;18.90;92.00